sensor_id;sensor_type;location;lat;lon;timestamp;P1;durP1;ratioP1;P2;durP2;ratioP2
60098;SDS011;62818;49.394;8.686;2023-05-10T00:00:12;4.23;;;1.50;;
60098;SDS011;62818;49.394;8.686;2023-05-10T00:01:13;2.90;;;1.30;;
60098;SDS011;62818;49.394;8.686;2023-05-10T00:02:13;1.40;;;1.20;;
60098;SDS011;62818;49.394;8.686;2023-05-10T00:03:14;2.13;;;1.40;;
60098;SDS011;62818;49.394;8.686;2023-05-10T00:04:14;1.43;;;1.33;;
60098;SDS011;62818;49.394;8.686;2023-05-10T00:05:15;1.50;;;1.30;;
60098;SDS011;62818;49.394;8.686;2023-05-10T00:06:15;2.87;;;1.40;;
60098;SDS011;62818;49.394;8.686;2023-05-10T00:07:16;2.67;;;1.30;;
60098;SDS011;62818;49.394;8.686;2023-05-10T00:08:17;1.52;;;1.20;;
60098;SDS011;62818;49.394;8.686;2023-05-10T00:09:18;2.40;;;1.27;;
60098;SDS011;62818;49.394;8.686;2023-05-10T00:10:18;2.87;;;1.30;;
60098;SDS011;62818;49.394;8.686;2023-05-10T00:11:18;1.53;;;1.20;;
60098;SDS011;62818;49.394;8.686;2023-05-10T00:12:20;3.80;;;1.38;;
60098;SDS011;62818;49.394;8.686;2023-05-10T00:13:20;4.97;;;1.80;;
60098;SDS011;62818;49.394;8.686;2023-05-10T00:14:22;1.85;;;1.20;;
60098;SDS011;62818;49.394;8.686;2023-05-10T00:15:22;2.87;;;1.40;;
60098;SDS011;62818;49.394;8.686;2023-05-10T00:16:23;2.17;;;1.23;;
60098;SDS011;62818;49.394;8.686;2023-05-10T00:17:23;2.30;;;1.40;;
60098;SDS011;62818;49.394;8.686;2023-05-10T00:18:24;3.33;;;1.33;;
60098;SDS011;62818;49.394;8.686;2023-05-10T00:19:24;1.77;;;1.40;;
60098;SDS011;62818;49.394;8.686;2023-05-10T00:20:25;2.13;;;1.30;;
60098;SDS011;62818;49.394;8.686;2023-05-10T00:21:25;2.73;;;1.57;;
60098;SDS011;62818;49.394;8.686;2023-05-10T00:22:28;1.80;;;1.23;;
60098;SDS011;62818;49.394;8.686;2023-05-10T00:23:28;1.57;;;1.30;;
60098;SDS011;62818;49.394;8.686;2023-05-10T00:24:29;1.33;;;1.10;;
60098;SDS011;62818;49.394;8.686;2023-05-10T00:25:29;1.53;;;1.10;;
60098;SDS011;62818;49.394;8.686;2023-05-10T00:26:30;3.27;;;1.33;;
60098;SDS011;62818;49.394;8.686;2023-05-10T00:27:30;1.80;;;1.13;;
60098;SDS011;62818;49.394;8.686;2023-05-10T00:28:31;1.57;;;1.30;;
60098;SDS011;62818;49.394;8.686;2023-05-10T00:29:31;2.37;;;1.40;;
60098;SDS011;62818;49.394;8.686;2023-05-10T00:30:33;1.85;;;1.30;;
60098;SDS011;62818;49.394;8.686;2023-05-10T00:31:34;1.30;;;1.20;;
60098;SDS011;62818;49.394;8.686;2023-05-10T00:32:34;1.97;;;1.20;;
60098;SDS011;62818;49.394;8.686;2023-05-10T00:33:35;2.60;;;1.30;;
60098;SDS011;62818;49.394;8.686;2023-05-10T00:34:35;2.23;;;0.93;;
60098;SDS011;62818;49.394;8.686;2023-05-10T00:35:36;1.77;;;1.10;;
60098;SDS011;62818;49.394;8.686;2023-05-10T00:37:38;1.70;;;1.23;;
60098;SDS011;62818;49.394;8.686;2023-05-10T00:38:38;1.23;;;1.13;;
60098;SDS011;62818;49.394;8.686;2023-05-10T00:39:39;2.47;;;1.27;;
60098;SDS011;62818;49.394;8.686;2023-05-10T00:40:39;1.53;;;1.17;;
60098;SDS011;62818;49.394;8.686;2023-05-10T00:41:40;4.50;;;1.23;;
60098;SDS011;62818;49.394;8.686;2023-05-10T00:42:41;3.80;;;1.20;;
60098;SDS011;62818;49.394;8.686;2023-05-10T00:43:41;3.10;;;0.97;;
60098;SDS011;62818;49.394;8.686;2023-05-10T00:44:42;1.47;;;1.27;;
60098;SDS011;62818;49.394;8.686;2023-05-10T00:45:42;2.63;;;0.93;;
60098;SDS011;62818;49.394;8.686;2023-05-10T00:46:43;2.63;;;0.95;;
60098;SDS011;62818;49.394;8.686;2023-05-10T00:48:45;1.52;;;1.02;;
60098;SDS011;62818;49.394;8.686;2023-05-10T00:49:46;7.17;;;1.27;;
60098;SDS011;62818;49.394;8.686;2023-05-10T00:50:46;1.20;;;1.10;;
60098;SDS011;62818;49.394;8.686;2023-05-10T00:51:48;2.88;;;1.25;;
60098;SDS011;62818;49.394;8.686;2023-05-10T00:52:49;1.00;;;1.00;;
60098;SDS011;62818;49.394;8.686;2023-05-10T00:53:50;1.15;;;1.02;;
60098;SDS011;62818;49.394;8.686;2023-05-10T00:54:51;1.05;;;0.95;;
60098;SDS011;62818;49.394;8.686;2023-05-10T00:55:52;0.95;;;0.93;;
60098;SDS011;62818;49.394;8.686;2023-05-10T00:56:53;1.10;;;1.00;;
60098;SDS011;62818;49.394;8.686;2023-05-10T00:57:53;1.20;;;1.10;;
60098;SDS011;62818;49.394;8.686;2023-05-10T00:58:54;3.25;;;1.00;;
60098;SDS011;62818;49.394;8.686;2023-05-10T01:00:57;1.10;;;0.98;;
60098;SDS011;62818;49.394;8.686;2023-05-10T01:01:59;2.38;;;1.05;;
60098;SDS011;62818;49.394;8.686;2023-05-10T01:02:59;1.37;;;1.17;;
60098;SDS011;62818;49.394;8.686;2023-05-10T01:04:01;3.75;;;1.10;;
60098;SDS011;62818;49.394;8.686;2023-05-10T01:05:03;3.13;;;1.10;;
60098;SDS011;62818;49.394;8.686;2023-05-10T01:06:04;1.48;;;1.20;;
60098;SDS011;62818;49.394;8.686;2023-05-10T01:07:05;3.03;;;1.20;;
60098;SDS011;62818;49.394;8.686;2023-05-10T01:12:49;2.80;;;1.02;;
60098;SDS011;62818;49.394;8.686;2023-05-10T01:13:52;1.10;;;1.00;;
60098;SDS011;62818;49.394;8.686;2023-05-10T01:14:57;1.85;;;1.00;;
60098;SDS011;62818;49.394;8.686;2023-05-10T01:15:58;1.00;;;1.00;;
60098;SDS011;62818;49.394;8.686;2023-05-10T01:17:01;4.63;;;1.10;;
60098;SDS011;62818;49.394;8.686;2023-05-10T01:18:02;3.72;;;1.20;;
60098;SDS011;62818;49.394;8.686;2023-05-10T01:19:10;1.13;;;0.95;;
60098;SDS011;62818;49.394;8.686;2023-05-10T01:20:15;1.20;;;1.10;;
60098;SDS011;62818;49.394;8.686;2023-05-10T01:22:03;1.30;;;0.97;;
60098;SDS011;62818;49.394;8.686;2023-05-10T01:23:00;1.27;;;1.10;;
60098;SDS011;62818;49.394;8.686;2023-05-10T01:29:39;3.33;;;1.13;;
60098;SDS011;62818;49.394;8.686;2023-05-10T01:30:51;2.47;;;1.10;;
60098;SDS011;62818;49.394;8.686;2023-05-10T01:32:24;3.38;;;1.08;;
60098;SDS011;62818;49.394;8.686;2023-05-10T01:34:08;1.67;;;1.10;;
60098;SDS011;62818;49.394;8.686;2023-05-10T01:36:30;3.13;;;1.20;;
60098;SDS011;62818;49.394;8.686;2023-05-10T01:37:41;4.72;;;1.17;;
60098;SDS011;62818;49.394;8.686;2023-05-10T01:38:51;1.88;;;1.13;;
60098;SDS011;62818;49.394;8.686;2023-05-10T01:42:08;1.98;;;1.25;;
60098;SDS011;62818;49.394;8.686;2023-05-10T01:43:21;2.30;;;1.20;;
60098;SDS011;62818;49.394;8.686;2023-05-10T01:44:34;1.55;;;1.40;;
60098;SDS011;62818;49.394;8.686;2023-05-10T01:46:02;1.55;;;1.33;;
60098;SDS011;62818;49.394;8.686;2023-05-10T01:47:14;3.25;;;1.73;;
60098;SDS011;62818;49.394;8.686;2023-05-10T01:48:20;7.18;;;2.05;;
60098;SDS011;62818;49.394;8.686;2023-05-10T01:49:24;1.83;;;1.40;;
60098;SDS011;62818;49.394;8.686;2023-05-10T01:50:33;1.85;;;1.20;;
60098;SDS011;62818;49.394;8.686;2023-05-10T01:51:41;1.67;;;1.17;;
60098;SDS011;62818;49.394;8.686;2023-05-10T01:52:51;5.18;;;1.48;;
60098;SDS011;62818;49.394;8.686;2023-05-10T01:55:02;4.57;;;1.73;;
60098;SDS011;62818;49.394;8.686;2023-05-10T01:56:07;2.55;;;1.40;;
60098;SDS011;62818;49.394;8.686;2023-05-10T01:57:12;5.93;;;1.63;;
60098;SDS011;62818;49.394;8.686;2023-05-10T01:58:20;1.52;;;1.40;;
60098;SDS011;62818;49.394;8.686;2023-05-10T01:59:28;3.33;;;1.50;;
60098;SDS011;62818;49.394;8.686;2023-05-10T02:00:36;13.27;;;2.13;;
60098;SDS011;62818;49.394;8.686;2023-05-10T02:01:47;2.63;;;1.27;;
60098;SDS011;62818;49.394;8.686;2023-05-10T02:02:52;7.18;;;2.05;;
60098;SDS011;62818;49.394;8.686;2023-05-10T02:03:55;1.77;;;1.67;;
60098;SDS011;62818;49.394;8.686;2023-05-10T02:04:57;1.58;;;1.40;;
60098;SDS011;62818;49.394;8.686;2023-05-10T02:06:00;3.45;;;1.67;;
60098;SDS011;62818;49.394;8.686;2023-05-10T02:07:02;3.72;;;1.75;;
60098;SDS011;62818;49.394;8.686;2023-05-10T02:08:05;3.33;;;2.70;;
60098;SDS011;62818;49.394;8.686;2023-05-10T02:09:07;2.05;;;1.90;;
60098;SDS011;62818;49.394;8.686;2023-05-10T02:10:11;3.15;;;2.75;;
60098;SDS011;62818;49.394;8.686;2023-05-10T02:11:15;4.22;;;1.92;;
60098;SDS011;62818;49.394;8.686;2023-05-10T02:12:18;4.32;;;1.40;;
60098;SDS011;62818;49.394;8.686;2023-05-10T02:13:21;2.58;;;1.27;;
60098;SDS011;62818;49.394;8.686;2023-05-10T02:14:24;2.17;;;1.60;;
60098;SDS011;62818;49.394;8.686;2023-05-10T02:15:27;3.00;;;1.33;;
60098;SDS011;62818;49.394;8.686;2023-05-10T02:16:30;1.75;;;1.40;;
60098;SDS011;62818;49.394;8.686;2023-05-10T02:17:32;1.70;;;1.40;;
60098;SDS011;62818;49.394;8.686;2023-05-10T02:18:34;1.73;;;1.40;;
60098;SDS011;62818;49.394;8.686;2023-05-10T02:19:37;5.38;;;1.50;;
60098;SDS011;62818;49.394;8.686;2023-05-10T02:20:41;2.28;;;1.40;;
60098;SDS011;62818;49.394;8.686;2023-05-10T02:21:45;2.67;;;1.52;;
60098;SDS011;62818;49.394;8.686;2023-05-10T02:22:47;3.55;;;1.38;;
60098;SDS011;62818;49.394;8.686;2023-05-10T02:23:52;2.45;;;1.50;;
60098;SDS011;62818;49.394;8.686;2023-05-10T02:24:55;5.63;;;1.55;;
60098;SDS011;62818;49.394;8.686;2023-05-10T02:25:59;3.33;;;1.13;;
60098;SDS011;62818;49.394;8.686;2023-05-10T02:27:02;1.73;;;1.60;;
60098;SDS011;62818;49.394;8.686;2023-05-10T02:28:04;1.42;;;1.33;;
60098;SDS011;62818;49.394;8.686;2023-05-10T02:29:07;4.47;;;1.35;;
60098;SDS011;62818;49.394;8.686;2023-05-10T02:30:10;3.10;;;1.40;;
60098;SDS011;62818;49.394;8.686;2023-05-10T02:31:12;4.57;;;1.45;;
60098;SDS011;62818;49.394;8.686;2023-05-10T02:32:14;3.22;;;1.38;;
60098;SDS011;62818;49.394;8.686;2023-05-10T02:33:17;3.50;;;1.40;;
60098;SDS011;62818;49.394;8.686;2023-05-10T02:34:21;2.72;;;1.50;;
60098;SDS011;62818;49.394;8.686;2023-05-10T02:35:25;1.70;;;1.27;;
60098;SDS011;62818;49.394;8.686;2023-05-10T02:36:27;6.35;;;1.40;;
60098;SDS011;62818;49.394;8.686;2023-05-10T02:37:29;2.08;;;1.30;;
60098;SDS011;62818;49.394;8.686;2023-05-10T02:38:32;3.17;;;1.17;;
60098;SDS011;62818;49.394;8.686;2023-05-10T02:39:35;5.03;;;1.30;;
60098;SDS011;62818;49.394;8.686;2023-05-10T02:40:36;3.22;;;1.30;;
60098;SDS011;62818;49.394;8.686;2023-05-10T02:42:41;1.48;;;1.27;;
60098;SDS011;62818;49.394;8.686;2023-05-10T02:43:44;4.63;;;1.27;;
60098;SDS011;62818;49.394;8.686;2023-05-10T02:44:47;2.67;;;1.50;;
60098;SDS011;62818;49.394;8.686;2023-05-10T02:45:52;1.50;;;1.30;;
60098;SDS011;62818;49.394;8.686;2023-05-10T02:46:53;2.37;;;1.50;;
60098;SDS011;62818;49.394;8.686;2023-05-10T02:47:56;5.90;;;1.20;;
60098;SDS011;62818;49.394;8.686;2023-05-10T02:48:57;1.30;;;1.20;;
60098;SDS011;62818;49.394;8.686;2023-05-10T02:49:57;1.60;;;1.50;;
60098;SDS011;62818;49.394;8.686;2023-05-10T02:51:00;6.13;;;1.75;;
60098;SDS011;62818;49.394;8.686;2023-05-10T02:52:07;2.38;;;1.50;;
60098;SDS011;62818;49.394;8.686;2023-05-10T02:53:13;2.85;;;1.60;;
60098;SDS011;62818;49.394;8.686;2023-05-10T02:54:22;2.55;;;1.40;;
60098;SDS011;62818;49.394;8.686;2023-05-10T02:55:31;6.55;;;1.63;;
60098;SDS011;62818;49.394;8.686;2023-05-10T02:56:40;1.20;;;1.10;;
60098;SDS011;62818;49.394;8.686;2023-05-10T02:57:51;1.70;;;1.35;;
60098;SDS011;62818;49.394;8.686;2023-05-10T02:59:00;5.85;;;1.42;;
60098;SDS011;62818;49.394;8.686;2023-05-10T03:00:01;3.13;;;1.27;;
60098;SDS011;62818;49.394;8.686;2023-05-10T03:01:03;2.10;;;1.48;;
60098;SDS011;62818;49.394;8.686;2023-05-10T03:02:03;1.40;;;1.30;;
60098;SDS011;62818;49.394;8.686;2023-05-10T03:03:05;2.95;;;1.30;;
60098;SDS011;62818;49.394;8.686;2023-05-10T03:04:06;3.92;;;1.25;;
60098;SDS011;62818;49.394;8.686;2023-05-10T03:05:07;4.80;;;1.53;;
60098;SDS011;62818;49.394;8.686;2023-05-10T03:06:08;1.75;;;1.65;;
60098;SDS011;62818;49.394;8.686;2023-05-10T03:07:09;3.83;;;1.35;;
60098;SDS011;62818;49.394;8.686;2023-05-10T03:08:10;3.83;;;1.30;;
60098;SDS011;62818;49.394;8.686;2023-05-10T03:09:11;2.08;;;1.40;;
60098;SDS011;62818;49.394;8.686;2023-05-10T03:10:15;3.03;;;1.80;;
60098;SDS011;62818;49.394;8.686;2023-05-10T03:11:31;4.17;;;1.43;;
60098;SDS011;62818;49.394;8.686;2023-05-10T03:14:21;5.05;;;1.50;;
60098;SDS011;62818;49.394;8.686;2023-05-10T03:18:50;2.67;;;1.70;;
60098;SDS011;62818;49.394;8.686;2023-05-10T03:20:20;3.17;;;1.45;;
60098;SDS011;62818;49.394;8.686;2023-05-10T03:21:33;2.17;;;1.67;;
60098;SDS011;62818;49.394;8.686;2023-05-10T03:22:45;2.97;;;1.60;;
60098;SDS011;62818;49.394;8.686;2023-05-10T03:23:57;3.23;;;2.00;;
60098;SDS011;62818;49.394;8.686;2023-05-10T03:25:08;2.28;;;1.75;;
60098;SDS011;62818;49.394;8.686;2023-05-10T03:26:13;4.88;;;1.67;;
60098;SDS011;62818;49.394;8.686;2023-05-10T03:27:26;3.38;;;2.20;;
60098;SDS011;62818;49.394;8.686;2023-05-10T03:28:28;2.10;;;1.90;;
60098;SDS011;62818;49.394;8.686;2023-05-10T03:29:30;4.13;;;2.10;;
60098;SDS011;62818;49.394;8.686;2023-05-10T03:30:32;4.80;;;2.05;;
60098;SDS011;62818;49.394;8.686;2023-05-10T03:31:34;3.95;;;2.10;;
60098;SDS011;62818;49.394;8.686;2023-05-10T03:32:35;2.90;;;2.00;;
60098;SDS011;62818;49.394;8.686;2023-05-10T03:33:45;3.20;;;2.10;;
60098;SDS011;62818;49.394;8.686;2023-05-10T03:34:50;3.35;;;1.92;;
60098;SDS011;62818;49.394;8.686;2023-05-10T03:35:50;5.50;;;2.10;;
60098;SDS011;62818;49.394;8.686;2023-05-10T03:36:51;7.83;;;2.37;;
60098;SDS011;62818;49.394;8.686;2023-05-10T03:37:52;2.58;;;2.38;;
60098;SDS011;62818;49.394;8.686;2023-05-10T03:38:52;3.07;;;2.20;;
60098;SDS011;62818;49.394;8.686;2023-05-10T03:39:53;10.27;;;2.20;;
60098;SDS011;62818;49.394;8.686;2023-05-10T03:40:53;2.40;;;2.20;;
60098;SDS011;62818;49.394;8.686;2023-05-10T03:41:54;3.53;;;2.10;;
60098;SDS011;62818;49.394;8.686;2023-05-10T03:42:54;3.90;;;2.03;;
60098;SDS011;62818;49.394;8.686;2023-05-10T03:43:55;3.50;;;2.20;;
60098;SDS011;62818;49.394;8.686;2023-05-10T03:44:56;2.63;;;2.40;;
60098;SDS011;62818;49.394;8.686;2023-05-10T03:45:56;5.27;;;2.53;;
60098;SDS011;62818;49.394;8.686;2023-05-10T03:46:57;3.00;;;2.70;;
60098;SDS011;62818;49.394;8.686;2023-05-10T03:47:57;3.00;;;1.97;;
60098;SDS011;62818;49.394;8.686;2023-05-10T03:48:58;3.22;;;2.30;;
60098;SDS011;62818;49.394;8.686;2023-05-10T03:49:59;2.75;;;2.35;;
60098;SDS011;62818;49.394;8.686;2023-05-10T03:50:59;6.40;;;2.90;;
60098;SDS011;62818;49.394;8.686;2023-05-10T03:52:00;3.60;;;2.33;;
60098;SDS011;62818;49.394;8.686;2023-05-10T03:53:00;5.10;;;2.27;;
60098;SDS011;62818;49.394;8.686;2023-05-10T03:54:02;4.55;;;2.55;;
60098;SDS011;62818;49.394;8.686;2023-05-10T03:55:02;5.93;;;2.60;;
60098;SDS011;62818;49.394;8.686;2023-05-10T03:56:03;3.83;;;2.40;;
60098;SDS011;62818;49.394;8.686;2023-05-10T03:57:04;7.40;;;2.30;;
60098;SDS011;62818;49.394;8.686;2023-05-10T03:58:04;2.77;;;2.50;;
60098;SDS011;62818;49.394;8.686;2023-05-10T03:59:05;4.97;;;2.23;;
60098;SDS011;62818;49.394;8.686;2023-05-10T04:00:07;5.50;;;2.50;;
60098;SDS011;62818;49.394;8.686;2023-05-10T04:01:09;5.40;;;2.53;;
60098;SDS011;62818;49.394;8.686;2023-05-10T04:02:10;6.88;;;2.53;;
60098;SDS011;62818;49.394;8.686;2023-05-10T04:03:11;3.47;;;2.27;;
60098;SDS011;62818;49.394;8.686;2023-05-10T04:04:12;2.15;;;1.98;;
60098;SDS011;62818;49.394;8.686;2023-05-10T04:05:13;2.60;;;2.40;;
60098;SDS011;62818;49.394;8.686;2023-05-10T04:06:13;6.23;;;2.30;;
60098;SDS011;62818;49.394;8.686;2023-05-10T04:07:14;3.17;;;2.53;;
60098;SDS011;62818;49.394;8.686;2023-05-10T04:08:14;2.88;;;2.38;;
60098;SDS011;62818;49.394;8.686;2023-05-10T04:09:16;3.00;;;2.40;;
60098;SDS011;62818;49.394;8.686;2023-05-10T04:10:17;5.07;;;2.20;;
60098;SDS011;62818;49.394;8.686;2023-05-10T04:11:17;2.63;;;2.43;;
60098;SDS011;62818;49.394;8.686;2023-05-10T04:12:18;3.70;;;2.67;;
60098;SDS011;62818;49.394;8.686;2023-05-10T04:13:18;2.90;;;2.70;;
60098;SDS011;62818;49.394;8.686;2023-05-10T04:14:19;3.10;;;2.58;;
60098;SDS011;62818;49.394;8.686;2023-05-10T04:15:20;4.27;;;2.47;;
60098;SDS011;62818;49.394;8.686;2023-05-10T04:16:20;6.07;;;2.80;;
60098;SDS011;62818;49.394;8.686;2023-05-10T04:17:21;2.93;;;2.70;;
60098;SDS011;62818;49.394;8.686;2023-05-10T04:18:21;7.17;;;2.90;;
60098;SDS011;62818;49.394;8.686;2023-05-10T04:19:22;4.70;;;2.70;;
60098;SDS011;62818;49.394;8.686;2023-05-10T04:20:24;3.97;;;2.95;;
60098;SDS011;62818;49.394;8.686;2023-05-10T04:21:24;3.73;;;2.53;;
60098;SDS011;62818;49.394;8.686;2023-05-10T04:22:25;3.80;;;2.53;;
60098;SDS011;62818;49.394;8.686;2023-05-10T04:23:26;3.43;;;2.67;;
60098;SDS011;62818;49.394;8.686;2023-05-10T04:24:27;5.93;;;2.63;;
60098;SDS011;62818;49.394;8.686;2023-05-10T04:25:28;4.80;;;3.00;;
60098;SDS011;62818;49.394;8.686;2023-05-10T04:26:28;4.33;;;3.00;;
60098;SDS011;62818;49.394;8.686;2023-05-10T04:27:29;5.38;;;3.05;;
60098;SDS011;62818;49.394;8.686;2023-05-10T04:28:29;5.73;;;2.77;;
60098;SDS011;62818;49.394;8.686;2023-05-10T04:29:30;8.17;;;3.10;;
60098;SDS011;62818;49.394;8.686;2023-05-10T04:30:30;8.00;;;3.10;;
60098;SDS011;62818;49.394;8.686;2023-05-10T04:31:31;5.40;;;2.67;;
60098;SDS011;62818;49.394;8.686;2023-05-10T04:32:32;5.07;;;3.00;;
60098;SDS011;62818;49.394;8.686;2023-05-10T04:33:32;5.23;;;3.20;;
60098;SDS011;62818;49.394;8.686;2023-05-10T04:34:34;8.80;;;3.15;;
60098;SDS011;62818;49.394;8.686;2023-05-10T04:35:35;6.60;;;3.20;;
60098;SDS011;62818;49.394;8.686;2023-05-10T04:36:35;4.22;;;3.15;;
60098;SDS011;62818;49.394;8.686;2023-05-10T04:37:36;3.50;;;3.20;;
60098;SDS011;62818;49.394;8.686;2023-05-10T04:38:37;5.00;;;3.03;;
60098;SDS011;62818;49.394;8.686;2023-05-10T04:39:37;4.57;;;3.10;;
60098;SDS011;62818;49.394;8.686;2023-05-10T04:40:38;8.40;;;3.87;;
60098;SDS011;62818;49.394;8.686;2023-05-10T04:41:38;7.30;;;3.73;;
60098;SDS011;62818;49.394;8.686;2023-05-10T04:42:42;5.17;;;3.50;;
60098;SDS011;62818;49.394;8.686;2023-05-10T04:43:44;4.97;;;3.28;;
60098;SDS011;62818;49.394;8.686;2023-05-10T04:44:50;5.38;;;3.78;;
60098;SDS011;62818;49.394;8.686;2023-05-10T04:45:52;4.20;;;3.80;;
60098;SDS011;62818;49.394;8.686;2023-05-10T04:46:52;8.03;;;4.20;;
60098;SDS011;62818;49.394;8.686;2023-05-10T04:47:52;7.23;;;3.73;;
60098;SDS011;62818;49.394;8.686;2023-05-10T04:48:53;4.73;;;3.90;;
60098;SDS011;62818;49.394;8.686;2023-05-10T04:49:53;3.80;;;3.50;;
60098;SDS011;62818;49.394;8.686;2023-05-10T04:50:54;4.40;;;3.57;;
60098;SDS011;62818;49.394;8.686;2023-05-10T04:51:55;6.13;;;3.70;;
60098;SDS011;62818;49.394;8.686;2023-05-10T04:52:56;4.15;;;3.75;;
60098;SDS011;62818;49.394;8.686;2023-05-10T04:53:56;5.70;;;3.57;;
60098;SDS011;62818;49.394;8.686;2023-05-10T04:54:57;5.00;;;3.83;;
60098;SDS011;62818;49.394;8.686;2023-05-10T04:55:57;7.23;;;3.37;;
60098;SDS011;62818;49.394;8.686;2023-05-10T04:56:58;3.43;;;3.13;;
60098;SDS011;62818;49.394;8.686;2023-05-10T04:57:58;7.07;;;3.83;;
60098;SDS011;62818;49.394;8.686;2023-05-10T04:58:59;5.23;;;3.20;;
60098;SDS011;62818;49.394;8.686;2023-05-10T04:59:59;3.10;;;2.90;;
60098;SDS011;62818;49.394;8.686;2023-05-10T05:01:06;5.50;;;3.10;;
60098;SDS011;62818;49.394;8.686;2023-05-10T05:02:09;8.88;;;3.10;;
60098;SDS011;62818;49.394;8.686;2023-05-10T05:03:09;7.93;;;3.20;;
60098;SDS011;62818;49.394;8.686;2023-05-10T05:04:10;4.13;;;3.57;;
60098;SDS011;62818;49.394;8.686;2023-05-10T05:05:13;3.60;;;2.90;;
60098;SDS011;62818;49.394;8.686;2023-05-10T05:06:14;3.50;;;3.13;;
60098;SDS011;62818;49.394;8.686;2023-05-10T05:07:14;4.27;;;3.23;;
60098;SDS011;62818;49.394;8.686;2023-05-10T05:08:15;6.13;;;3.20;;
60098;SDS011;62818;49.394;8.686;2023-05-10T05:09:15;3.30;;;2.97;;
60098;SDS011;62818;49.394;8.686;2023-05-10T05:10:16;3.77;;;3.37;;
60098;SDS011;62818;49.394;8.686;2023-05-10T05:11:17;3.57;;;3.00;;
60098;SDS011;62818;49.394;8.686;2023-05-10T05:12:17;4.03;;;2.78;;
60098;SDS011;62818;49.394;8.686;2023-05-10T05:13:18;7.13;;;3.83;;
60098;SDS011;62818;49.394;8.686;2023-05-10T05:14:19;4.63;;;3.73;;
60098;SDS011;62818;49.394;8.686;2023-05-10T05:15:20;5.95;;;3.33;;
60098;SDS011;62818;49.394;8.686;2023-05-10T05:16:21;3.60;;;3.30;;
60098;SDS011;62818;49.394;8.686;2023-05-10T05:17:21;7.00;;;3.70;;
60098;SDS011;62818;49.394;8.686;2023-05-10T05:18:22;3.53;;;3.23;;
60098;SDS011;62818;49.394;8.686;2023-05-10T05:19:22;3.83;;;3.37;;
60098;SDS011;62818;49.394;8.686;2023-05-10T05:20:23;5.50;;;3.60;;
60098;SDS011;62818;49.394;8.686;2023-05-10T05:21:24;4.47;;;3.07;;
60098;SDS011;62818;49.394;8.686;2023-05-10T05:22:26;4.45;;;3.22;;
60098;SDS011;62818;49.394;8.686;2023-05-10T05:23:28;9.18;;;3.63;;
60098;SDS011;62818;49.394;8.686;2023-05-10T05:24:28;8.90;;;3.40;;
60098;SDS011;62818;49.394;8.686;2023-05-10T05:25:29;4.60;;;3.43;;
60098;SDS011;62818;49.394;8.686;2023-05-10T05:26:29;4.57;;;3.40;;
60098;SDS011;62818;49.394;8.686;2023-05-10T05:27:30;4.03;;;3.20;;
60098;SDS011;62818;49.394;8.686;2023-05-10T05:28:31;6.60;;;3.33;;
60098;SDS011;62818;49.394;8.686;2023-05-10T05:29:34;5.80;;;3.28;;
60098;SDS011;62818;49.394;8.686;2023-05-10T05:30:35;4.15;;;3.47;;
60098;SDS011;62818;49.394;8.686;2023-05-10T05:31:35;4.27;;;3.70;;
60098;SDS011;62818;49.394;8.686;2023-05-10T05:32:36;5.60;;;3.43;;
60098;SDS011;62818;49.394;8.686;2023-05-10T05:33:36;4.70;;;3.87;;
60098;SDS011;62818;49.394;8.686;2023-05-10T05:34:37;5.07;;;3.47;;
60098;SDS011;62818;49.394;8.686;2023-05-10T05:35:37;3.83;;;3.40;;
60098;SDS011;62818;49.394;8.686;2023-05-10T05:36:38;6.53;;;3.60;;
60098;SDS011;62818;49.394;8.686;2023-05-10T05:37:38;3.57;;;3.27;;
60098;SDS011;62818;49.394;8.686;2023-05-10T05:38:39;5.70;;;3.57;;
60098;SDS011;62818;49.394;8.686;2023-05-10T05:39:40;5.95;;;3.75;;
60098;SDS011;62818;49.394;8.686;2023-05-10T05:40:41;6.38;;;3.83;;
60098;SDS011;62818;49.394;8.686;2023-05-10T05:41:41;7.27;;;4.10;;
60098;SDS011;62818;49.394;8.686;2023-05-10T05:42:42;4.30;;;3.57;;
60098;SDS011;62818;49.394;8.686;2023-05-10T05:43:42;4.40;;;3.87;;
60098;SDS011;62818;49.394;8.686;2023-05-10T05:44:43;8.63;;;3.90;;
60098;SDS011;62818;49.394;8.686;2023-05-10T05:45:44;7.20;;;4.73;;
60098;SDS011;62818;49.394;8.686;2023-05-10T05:46:44;8.03;;;3.90;;
60098;SDS011;62818;49.394;8.686;2023-05-10T05:47:45;5.20;;;3.90;;
60098;SDS011;62818;49.394;8.686;2023-05-10T05:48:45;8.37;;;3.47;;
60098;SDS011;62818;49.394;8.686;2023-05-10T05:49:46;4.00;;;3.40;;
60098;SDS011;62818;49.394;8.686;2023-05-10T05:50:46;4.37;;;3.70;;
60098;SDS011;62818;49.394;8.686;2023-05-10T05:51:47;4.27;;;3.47;;
60098;SDS011;62818;49.394;8.686;2023-05-10T05:52:49;4.43;;;3.40;;
60098;SDS011;62818;49.394;8.686;2023-05-10T05:53:50;4.10;;;3.00;;
60098;SDS011;62818;49.394;8.686;2023-05-10T05:54:50;4.53;;;3.03;;
60098;SDS011;62818;49.394;8.686;2023-05-10T05:55:55;4.57;;;3.10;;
60098;SDS011;62818;49.394;8.686;2023-05-10T05:57:00;3.78;;;2.83;;
60098;SDS011;62818;49.394;8.686;2023-05-10T05:58:00;6.95;;;3.30;;
60098;SDS011;62818;49.394;8.686;2023-05-10T05:59:01;5.10;;;2.93;;
60098;SDS011;62818;49.394;8.686;2023-05-10T06:00:02;4.90;;;3.33;;
60098;SDS011;62818;49.394;8.686;2023-05-10T06:01:03;4.22;;;3.60;;
60098;SDS011;62818;49.394;8.686;2023-05-10T06:02:03;4.60;;;3.20;;
60098;SDS011;62818;49.394;8.686;2023-05-10T06:03:03;6.50;;;3.43;;
60098;SDS011;62818;49.394;8.686;2023-05-10T06:04:04;4.07;;;3.40;;
60098;SDS011;62818;49.394;8.686;2023-05-10T06:05:04;4.37;;;3.27;;
60098;SDS011;62818;49.394;8.686;2023-05-10T06:06:06;3.53;;;3.20;;
60098;SDS011;62818;49.394;8.686;2023-05-10T06:07:06;4.87;;;3.50;;
60098;SDS011;62818;49.394;8.686;2023-05-10T06:08:07;4.43;;;3.27;;
60098;SDS011;62818;49.394;8.686;2023-05-10T06:09:07;4.07;;;3.77;;
60098;SDS011;62818;49.394;8.686;2023-05-10T06:10:09;5.32;;;3.47;;
60098;SDS011;62818;49.394;8.686;2023-05-10T06:11:10;13.90;;;3.63;;
60098;SDS011;62818;49.394;8.686;2023-05-10T06:12:10;7.90;;;4.07;;
60098;SDS011;62818;49.394;8.686;2023-05-10T06:13:11;4.88;;;3.90;;
60098;SDS011;62818;49.394;8.686;2023-05-10T06:14:12;6.30;;;3.60;;
60098;SDS011;62818;49.394;8.686;2023-05-10T06:15:13;7.13;;;4.10;;
60098;SDS011;62818;49.394;8.686;2023-05-10T06:16:13;4.70;;;3.70;;
60098;SDS011;62818;49.394;8.686;2023-05-10T06:17:14;5.40;;;3.50;;
60098;SDS011;62818;49.394;8.686;2023-05-10T06:18:14;6.10;;;4.07;;
60098;SDS011;62818;49.394;8.686;2023-05-10T06:19:15;5.77;;;4.27;;
60098;SDS011;62818;49.394;8.686;2023-05-10T06:20:15;6.03;;;4.30;;
60098;SDS011;62818;49.394;8.686;2023-05-10T06:21:16;7.17;;;4.23;;
60098;SDS011;62818;49.394;8.686;2023-05-10T06:22:17;6.07;;;4.13;;
60098;SDS011;62818;49.394;8.686;2023-05-10T06:23:17;6.03;;;4.30;;
60098;SDS011;62818;49.394;8.686;2023-05-10T06:24:18;3.93;;;3.63;;
60098;SDS011;62818;49.394;8.686;2023-05-10T06:25:18;4.70;;;3.73;;
60098;SDS011;62818;49.394;8.686;2023-05-10T06:26:19;10.40;;;4.37;;
60098;SDS011;62818;49.394;8.686;2023-05-10T06:27:20;6.55;;;4.07;;
60098;SDS011;62818;49.394;8.686;2023-05-10T06:28:21;4.43;;;3.90;;
60098;SDS011;62818;49.394;8.686;2023-05-10T06:29:22;9.07;;;4.70;;
60098;SDS011;62818;49.394;8.686;2023-05-10T06:30:23;6.80;;;4.73;;
60098;SDS011;62818;49.394;8.686;2023-05-10T06:31:27;7.47;;;4.38;;
60098;SDS011;62818;49.394;8.686;2023-05-10T06:32:27;9.77;;;4.23;;
60098;SDS011;62818;49.394;8.686;2023-05-10T06:33:28;7.07;;;4.40;;
60098;SDS011;62818;49.394;8.686;2023-05-10T06:34:29;12.00;;;4.47;;
60098;SDS011;62818;49.394;8.686;2023-05-10T06:35:29;6.50;;;4.33;;
60098;SDS011;62818;49.394;8.686;2023-05-10T06:36:32;10.30;;;4.18;;
60098;SDS011;62818;49.394;8.686;2023-05-10T06:37:32;7.17;;;5.20;;
60098;SDS011;62818;49.394;8.686;2023-05-10T06:38:33;6.80;;;4.32;;
60098;SDS011;62818;49.394;8.686;2023-05-10T06:39:33;8.17;;;4.67;;
60098;SDS011;62818;49.394;8.686;2023-05-10T06:40:34;6.43;;;4.57;;